sensor_id;sensor_type;location;lat;lon;timestamp;pressure;altitude;pressure_sealevel;temperature;humidity
8039;BME280;4062;49.844;8.120;2023-07-31T00:00:02;99172.94;;;18.84;57.26
8039;BME280;4062;49.844;8.120;2023-07-31T00:02:06;99172.19;;;18.82;57.62
8039;BME280;4062;49.844;8.120;2023-07-31T00:04:07;99170.38;;;18.83;57.22
8039;BME280;4062;49.844;8.120;2023-07-31T00:06:08;99168.56;;;18.83;57.30
8039;BME280;4062;49.844;8.120;2023-07-31T00:08:10;99168.56;;;18.83;57.37
8039;BME280;4062;49.844;8.120;2023-07-31T00:10:11;99168.56;;;18.83;57.43
8039;BME280;4062;49.844;8.120;2023-07-31T00:12:12;99168.56;;;18.83;57.21
8039;BME280;4062;49.844;8.120;2023-07-31T00:14:14;99172.06;;;18.84;57.22
8039;BME280;4062;49.844;8.120;2023-07-31T00:16:15;99169.50;;;18.82;57.56
8039;BME280;4062;49.844;8.120;2023-07-31T00:18:16;99161.47;;;18.82;57.43
8039;BME280;4062;49.844;8.120;2023-07-31T00:20:17;99160.53;;;18.83;57.37
8039;BME280;4062;49.844;8.120;2023-07-31T00:22:19;99165.03;;;18.83;57.25
8039;BME280;4062;49.844;8.120;2023-07-31T00:24:20;99158.69;;;18.84;57.36
8039;BME280;4062;49.844;8.120;2023-07-31T00:26:21;99168.56;;;18.83;57.49
8039;BME280;4062;49.844;8.120;2023-07-31T00:28:22;99165.88;;;18.83;57.48
8039;BME280;4062;49.844;8.120;2023-07-31T00:30:24;99154.31;;;18.83;57.46
8039;BME280;4062;49.844;8.120;2023-07-31T00:32:26;99160.53;;;18.83;57.38
8039;BME280;4062;49.844;8.120;2023-07-31T00:34:27;99167.69;;;18.83;57.37
8039;BME280;4062;49.844;8.120;2023-07-31T00:36:29;99165.88;;;18.83;57.42
8039;BME280;4062;49.844;8.120;2023-07-31T00:38:30;99165.88;;;18.83;57.35
8039;BME280;4062;49.844;8.120;2023-07-31T00:40:35;99161.38;;;18.84;57.37
8039;BME280;4062;49.844;8.120;2023-07-31T00:42:38;99168.56;;;18.83;57.47
8039;BME280;4062;49.844;8.120;2023-07-31T00:44:39;99168.56;;;18.83;57.18
8039;BME280;4062;49.844;8.120;2023-07-31T00:46:40;99160.53;;;18.83;57.35
8039;BME280;4062;49.844;8.120;2023-07-31T00:48:42;99167.69;;;18.83;57.46
8039;BME280;4062;49.844;8.120;2023-07-31T00:50:43;99160.53;;;18.83;57.37
8039;BME280;4062;49.844;8.120;2023-07-31T00:52:45;99165.03;;;18.83;57.23
8039;BME280;4062;49.844;8.120;2023-07-31T00:54:46;99165.88;;;18.83;57.30
8039;BME280;4062;49.844;8.120;2023-07-31T00:56:47;99154.31;;;18.83;57.21
8039;BME280;4062;49.844;8.120;2023-07-31T00:58:50;99155.16;;;18.83;57.29
8039;BME280;4062;49.844;8.120;2023-07-31T01:00:51;99158.69;;;18.84;57.49
8039;BME280;4062;49.844;8.120;2023-07-31T01:02:53;99152.50;;;18.83;57.35
8039;BME280;4062;49.844;8.120;2023-07-31T01:04:56;99158.78;;;18.82;57.54
8039;BME280;4062;49.844;8.120;2023-07-31T01:07:14;99160.53;;;18.83;57.31
8039;BME280;4062;49.844;8.120;2023-07-31T01:09:28;99159.66;;;18.83;57.62
8039;BME280;4062;49.844;8.120;2023-07-31T01:11:43;99153.44;;;18.82;57.38
8039;BME280;4062;49.844;8.120;2023-07-31T01:13:48;99157.00;;;18.83;57.50
8039;BME280;4062;49.844;8.120;2023-07-31T01:15:49;99155.16;;;18.83;57.36
8039;BME280;4062;49.844;8.120;2023-07-31T01:17:50;99154.31;;;18.83;57.25
8039;BME280;4062;49.844;8.120;2023-07-31T01:19:52;99149.81;;;18.83;57.33
8039;BME280;4062;49.844;8.120;2023-07-31T01:22:22;99148.97;;;18.83;57.41
8039;BME280;4062;49.844;8.120;2023-07-31T01:24:54;99134.69;;;18.82;57.42
8039;BME280;4062;49.844;8.120;2023-07-31T01:27:02;99153.44;;;18.82;57.15
8039;BME280;4062;49.844;8.120;2023-07-31T01:29:23;99148.97;;;18.83;57.29
8039;BME280;4062;49.844;8.120;2023-07-31T01:31:29;99149.91;;;18.82;57.30
8039;BME280;4062;49.844;8.120;2023-07-31T01:33:32;99147.25;;;18.82;57.50
8039;BME280;4062;49.844;8.120;2023-07-31T01:35:35;99142.63;;;18.84;57.46
8039;BME280;4062;49.844;8.120;2023-07-31T01:37:37;99138.25;;;18.83;57.29
8039;BME280;4062;49.844;8.120;2023-07-31T01:39:38;99132.03;;;18.82;57.33
8039;BME280;4062;49.844;8.120;2023-07-31T01:41:40;99130.22;;;18.83;57.53
8039;BME280;4062;49.844;8.120;2023-07-31T01:43:41;99126.69;;;18.82;57.28
8039;BME280;4062;49.844;8.120;2023-07-31T01:45:42;99131.19;;;18.82;57.29
8039;BME280;4062;49.844;8.120;2023-07-31T01:47:43;99132.91;;;18.83;57.51
8039;BME280;4062;49.844;8.120;2023-07-31T01:49:47;99128.41;;;18.83;57.48
8039;BME280;4062;49.844;8.120;2023-07-31T01:51:48;99120.47;;;18.82;57.47
8039;BME280;4062;49.844;8.120;2023-07-31T01:53:50;99126.69;;;18.82;57.49
8039;BME280;4062;49.844;8.120;2023-07-31T01:55:51;99127.56;;;18.83;57.17
8039;BME280;4062;49.844;8.120;2023-07-31T01:57:52;99126.69;;;18.82;57.34
8039;BME280;4062;49.844;8.120;2023-07-31T01:59:54;99122.19;;;18.83;57.41
8039;BME280;4062;49.844;8.120;2023-07-31T02:01:55;99121.31;;;18.82;57.43
8039;BME280;4062;49.844;8.120;2023-07-31T02:03:56;99116.84;;;18.83;57.43
8039;BME280;4062;49.844;8.120;2023-07-31T02:05:58;99108.81;;;18.83;57.27
8039;BME280;4062;49.844;8.120;2023-07-31T02:08:00;99116.84;;;18.83;57.56
8039;BME280;4062;49.844;8.120;2023-07-31T02:12:05;99104.41;;;18.82;57.41
8039;BME280;4062;49.844;8.120;2023-07-31T02:14:06;99111.50;;;18.83;57.56
8039;BME280;4062;49.844;8.120;2023-07-31T02:16:07;99103.47;;;18.83;57.48
8039;BME280;4062;49.844;8.120;2023-07-31T02:18:09;99096.38;;;18.82;57.36
8039;BME280;4062;49.844;8.120;2023-07-31T02:20:10;99087.41;;;18.83;57.35
8039;BME280;4062;49.844;8.120;2023-07-31T02:22:12;99091.88;;;18.82;57.36
8039;BME280;4062;49.844;8.120;2023-07-31T02:24:13;99091.88;;;18.82;57.48
8039;BME280;4062;49.844;8.120;2023-07-31T02:26:14;99083.84;;;18.82;57.59
8039;BME280;4062;49.844;8.120;2023-07-31T02:28:16;99079.38;;;18.83;57.51
8039;BME280;4062;49.844;8.120;2023-07-31T02:30:18;99080.34;;;18.82;57.24
8039;BME280;4062;49.844;8.120;2023-07-31T02:32:19;99083.84;;;18.82;57.40
8039;BME280;4062;49.844;8.120;2023-07-31T02:34:20;99091.03;;;18.82;57.29
8039;BME280;4062;49.844;8.120;2023-07-31T02:36:21;99085.69;;;18.82;57.55
8039;BME280;4062;49.844;8.120;2023-07-31T02:38:23;99090.09;;;18.83;57.55
8039;BME280;4062;49.844;8.120;2023-07-31T02:40:24;99089.19;;;18.82;57.17
8039;BME280;4062;49.844;8.120;2023-07-31T02:42:25;99102.59;;;18.82;57.60
8039;BME280;4062;49.844;8.120;2023-07-31T02:44:26;99104.41;;;18.82;57.44
8039;BME280;4062;49.844;8.120;2023-07-31T02:46:28;99100.78;;;18.83;57.44
8039;BME280;4062;49.844;8.120;2023-07-31T02:48:30;99097.22;;;18.82;57.54
8039;BME280;4062;49.844;8.120;2023-07-31T02:50:31;99095.44;;;18.83;57.36
8039;BME280;4062;49.844;8.120;2023-07-31T02:52:33;99102.59;;;18.82;57.47
8039;BME280;4062;49.844;8.120;2023-07-31T02:54:34;99105.25;;;18.82;57.59
8039;BME280;4062;49.844;8.120;2023-07-31T02:56:35;99100.78;;;18.83;57.55
8039;BME280;4062;49.844;8.120;2023-07-31T02:58:36;99098.13;;;18.83;57.36
8039;BME280;4062;49.844;8.120;2023-07-31T03:00:43;99095.44;;;18.83;57.48
8039;BME280;4062;49.844;8.120;2023-07-31T03:02:44;99097.22;;;18.82;57.54
8039;BME280;4062;49.844;8.120;2023-07-31T03:04:46;99102.59;;;18.82;57.46
8039;BME280;4062;49.844;8.120;2023-07-31T03:06:47;99099.91;;;18.82;57.57
8039;BME280;4062;49.844;8.120;2023-07-31T03:08:48;99099.91;;;18.82;57.31
8039;BME280;4062;49.844;8.120;2023-07-31T03:10:50;99094.56;;;18.82;57.23
8039;BME280;4062;49.844;8.120;2023-07-31T03:12:51;99091.88;;;18.82;57.30
8039;BME280;4062;49.844;8.120;2023-07-31T03:14:52;99102.59;;;18.82;57.44
8039;BME280;4062;49.844;8.120;2023-07-31T03:16:54;99095.44;;;18.83;57.34
8039;BME280;4062;49.844;8.120;2023-07-31T03:18:55;99092.75;;;18.83;57.53
8039;BME280;4062;49.844;8.120;2023-07-31T03:20:56;99084.81;;;18.81;57.52
8039;BME280;4062;49.844;8.120;2023-07-31T03:22:58;99094.56;;;18.82;57.28
8039;BME280;4062;49.844;8.120;2023-07-31T03:24:59;99089.19;;;18.82;57.43
8039;BME280;4062;49.844;8.120;2023-07-31T03:27:00;99091.03;;;18.82;57.49
8039;BME280;4062;49.844;8.120;2023-07-31T03:29:03;99090.16;;;18.81;57.38
8039;BME280;4062;49.844;8.120;2023-07-31T03:31:04;99092.84;;;18.81;57.49
8039;BME280;4062;49.844;8.120;2023-07-31T03:33:05;99089.19;;;18.82;57.56
8039;BME280;4062;49.844;8.120;2023-07-31T03:35:07;99092.84;;;18.81;57.51
8039;BME280;4062;49.844;8.120;2023-07-31T03:37:09;99096.38;;;18.82;57.43
8039;BME280;4062;49.844;8.120;2023-07-31T03:39:10;99089.19;;;18.82;57.42
8039;BME280;4062;49.844;8.120;2023-07-31T03:41:12;99089.19;;;18.82;57.51
8039;BME280;4062;49.844;8.120;2023-07-31T03:43:13;99093.72;;;18.82;57.47
8039;BME280;4062;49.844;8.120;2023-07-31T03:45:14;99093.72;;;18.82;57.44
8039;BME280;4062;49.844;8.120;2023-07-31T03:47:16;99097.22;;;18.82;57.33
8039;BME280;4062;49.844;8.120;2023-07-31T03:49:17;99096.38;;;18.82;57.47
8039;BME280;4062;49.844;8.120;2023-07-31T03:51:18;99093.72;;;18.82;57.35
8039;BME280;4062;49.844;8.120;2023-07-31T03:53:20;99093.72;;;18.82;57.40
8039;BME280;4062;49.844;8.120;2023-07-31T03:55:21;99097.22;;;18.82;57.38
8039;BME280;4062;49.844;8.120;2023-07-31T03:57:25;99092.84;;;18.81;57.52
8039;BME280;4062;49.844;8.120;2023-07-31T03:59:27;99095.44;;;18.83;57.40
8039;BME280;4062;49.844;8.120;2023-07-31T04:01:28;99094.56;;;18.82;57.49
8039;BME280;4062;49.844;8.120;2023-07-31T04:03:30;99090.16;;;18.81;57.35
8039;BME280;4062;49.844;8.120;2023-07-31T04:05:32;99083.00;;;18.82;57.42
8039;BME280;4062;49.844;8.120;2023-07-31T04:07:34;99092.84;;;18.81;57.23
8039;BME280;4062;49.844;8.120;2023-07-31T04:09:35;99085.69;;;18.82;57.49
8039;BME280;4062;49.844;8.120;2023-07-31T04:11:36;99077.66;;;18.82;57.41
8039;BME280;4062;49.844;8.120;2023-07-31T04:13:38;99074.97;;;18.82;57.58
8039;BME280;4062;49.844;8.120;2023-07-31T04:15:40;99069.63;;;18.82;57.40
8039;BME280;4062;49.844;8.120;2023-07-31T04:17:41;99070.47;;;18.82;57.51
8039;BME280;4062;49.844;8.120;2023-07-31T04:19:43;99072.31;;;18.82;57.55
8039;BME280;4062;49.844;8.120;2023-07-31T04:21:44;99072.31;;;18.82;57.40
8039;BME280;4062;49.844;8.120;2023-07-31T04:23:45;99068.75;;;18.81;57.50
8039;BME280;4062;49.844;8.120;2023-07-31T04:25:46;99064.28;;;18.82;57.56
8039;BME280;4062;49.844;8.120;2023-07-31T04:27:48;99066.06;;;18.81;57.54
8039;BME280;4062;49.844;8.120;2023-07-31T04:29:49;99063.41;;;18.81;57.48
8039;BME280;4062;49.844;8.120;2023-07-31T04:31:50;99060.72;;;18.81;57.52
8039;BME280;4062;49.844;8.120;2023-07-31T04:33:52;99050.00;;;18.81;57.22
8039;BME280;4062;49.844;8.120;2023-07-31T04:35:54;99056.25;;;18.82;57.40
8039;BME280;4062;49.844;8.120;2023-07-31T04:37:55;99050.88;;;18.82;57.60
8039;BME280;4062;49.844;8.120;2023-07-31T04:39:57;99047.34;;;18.81;57.43
8039;BME280;4062;49.844;8.120;2023-07-31T04:41:58;99046.38;;;18.82;57.53
8039;BME280;4062;49.844;8.120;2023-07-31T04:43:59;99043.81;;;18.81;57.45
8039;BME280;4062;49.844;8.120;2023-07-31T04:46:00;99050.00;;;18.81;57.23
8039;BME280;4062;49.844;8.120;2023-07-31T04:48:02;99047.34;;;18.81;57.52
8039;BME280;4062;49.844;8.120;2023-07-31T04:50:03;99044.66;;;18.81;57.30
8039;BME280;4062;49.844;8.120;2023-07-31T04:52:05;99049.06;;;18.82;57.67
8039;BME280;4062;49.844;8.120;2023-07-31T04:54:06;99049.06;;;18.82;57.35
8039;BME280;4062;49.844;8.120;2023-07-31T04:56:07;99041.97;;;18.81;57.37
8039;BME280;4062;49.844;8.120;2023-07-31T04:58:09;99053.56;;;18.82;57.43
8039;BME280;4062;49.844;8.120;2023-07-31T05:00:10;99062.44;;;18.82;57.42
8039;BME280;4062;49.844;8.120;2023-07-31T05:02:12;99053.56;;;18.82;57.25
8039;BME280;4062;49.844;8.120;2023-07-31T05:04:14;99051.84;;;18.81;57.52
8039;BME280;4062;49.844;8.120;2023-07-31T05:06:16;99050.00;;;18.81;57.26
8039;BME280;4062;49.844;8.120;2023-07-31T05:08:17;99053.56;;;18.82;57.58
8039;BME280;4062;49.844;8.120;2023-07-31T05:10:18;99051.84;;;18.81;57.62
8039;BME280;4062;49.844;8.120;2023-07-31T05:12:20;99050.00;;;18.81;57.38
8039;BME280;4062;49.844;8.120;2023-07-31T05:14:21;99053.56;;;18.82;57.43
8039;BME280;4062;49.844;8.120;2023-07-31T05:16:22;99053.56;;;18.82;57.57
8039;BME280;4062;49.844;8.120;2023-07-31T05:18:24;99052.69;;;18.81;57.55
8039;BME280;4062;49.844;8.120;2023-07-31T05:20:25;99048.22;;;18.82;57.64
8039;BME280;4062;49.844;8.120;2023-07-31T05:22:26;99046.50;;;18.81;57.30
8039;BME280;4062;49.844;8.120;2023-07-31T05:24:27;99051.72;;;18.82;57.42
8039;BME280;4062;49.844;8.120;2023-07-31T05:26:29;99043.81;;;18.81;57.33
8039;BME280;4062;49.844;8.120;2023-07-31T05:28:30;99043.81;;;18.81;57.43
8039;BME280;4062;49.844;8.120;2023-07-31T05:30:32;99039.31;;;18.81;57.51
8039;BME280;4062;49.844;8.120;2023-07-31T05:32:33;99043.69;;;18.82;57.38
8039;BME280;4062;49.844;8.120;2023-07-31T05:34:34;99041.97;;;18.81;57.48
8039;BME280;4062;49.844;8.120;2023-07-31T05:36:35;99037.50;;;18.82;57.32
8039;BME280;4062;49.844;8.120;2023-07-31T05:38:36;99040.19;;;18.82;57.68
8039;BME280;4062;49.844;8.120;2023-07-31T05:40:38;99035.69;;;18.82;57.35
8039;BME280;4062;49.844;8.120;2023-07-31T05:42:39;99040.19;;;18.82;57.38
8039;BME280;4062;49.844;8.120;2023-07-31T05:44:40;99036.63;;;18.81;57.60
8039;BME280;4062;49.844;8.120;2023-07-31T05:46:42;99037.50;;;18.82;57.54
8039;BME280;4062;49.844;8.120;2023-07-31T05:48:43;99036.63;;;18.81;57.60
8039;BME280;4062;49.844;8.120;2023-07-31T05:50:45;99036.63;;;18.81;57.70
8039;BME280;4062;49.844;8.120;2023-07-31T05:52:46;99034.81;;;18.82;57.64
8039;BME280;4062;49.844;8.120;2023-07-31T05:54:48;99029.47;;;18.82;57.44
8039;BME280;4062;49.844;8.120;2023-07-31T05:56:49;99017.91;;;18.81;57.55
8039;BME280;4062;49.844;8.120;2023-07-31T05:58:50;99010.75;;;18.82;57.29
8039;BME280;4062;49.844;8.120;2023-07-31T06:00:52;99007.19;;;18.81;57.71
8039;BME280;4062;49.844;8.120;2023-07-31T06:02:54;99010.75;;;18.82;57.32
8039;BME280;4062;49.844;8.120;2023-07-31T06:04:55;99015.13;;;18.83;57.54
8039;BME280;4062;49.844;8.120;2023-07-31T06:06:56;99015.13;;;18.83;57.60
8039;BME280;4062;49.844;8.120;2023-07-31T06:08:58;99018.78;;;18.82;57.51
8039;BME280;4062;49.844;8.120;2023-07-31T06:10:59;99016.09;;;18.82;57.38
8039;BME280;4062;49.844;8.120;2023-07-31T06:13:01;99019.63;;;18.82;57.63
8039;BME280;4062;49.844;8.120;2023-07-31T06:15:03;99023.16;;;18.83;57.44
8039;BME280;4062;49.844;8.120;2023-07-31T06:17:06;99028.53;;;18.83;57.62
8039;BME280;4062;49.844;8.120;2023-07-31T06:19:07;99018.66;;;18.83;57.36
8039;BME280;4062;49.844;8.120;2023-07-31T06:21:10;99014.16;;;18.84;57.45
8039;BME280;4062;49.844;8.120;2023-07-31T06:23:11;99021.34;;;18.83;57.44
8039;BME280;4062;49.844;8.120;2023-07-31T06:25:13;99019.63;;;18.82;57.55
8039;BME280;4062;49.844;8.120;2023-07-31T06:27:14;99019.63;;;18.82;57.49
8039;BME280;4062;49.844;8.120;2023-07-31T06:29:16;99024.00;;;18.83;57.56
8039;BME280;4062;49.844;8.120;2023-07-31T06:31:21;99031.19;;;18.83;57.56
8039;BME280;4062;49.844;8.120;2023-07-31T06:33:24;99025.84;;;18.83;57.75
8039;BME280;4062;49.844;8.120;2023-07-31T06:35:26;99029.38;;;18.83;57.57
8039;BME280;4062;49.844;8.120;2023-07-31T06:37:28;99029.38;;;18.83;57.53
8039;BME280;4062;49.844;8.120;2023-07-31T06:39:30;99022.28;;;18.82;57.53
8039;BME280;4062;49.844;8.120;2023-07-31T06:41:31;99028.53;;;18.83;57.33
8039;BME280;4062;49.844;8.120;2023-07-31T06:43:32;99030.22;;;18.84;57.68
8039;BME280;4062;49.844;8.120;2023-07-31T06:45:35;99024.84;;;18.84;57.54
8039;BME280;4062;49.844;8.120;2023-07-31T06:47:36;99030.22;;;18.84;57.34
8039;BME280;4062;49.844;8.120;2023-07-31T06:49:38;99032.88;;;18.84;57.30
8039;BME280;4062;49.844;8.120;2023-07-31T06:51:39;99031.19;;;18.83;57.59
8039;BME280;4062;49.844;8.120;2023-07-31T06:53:41;99032.03;;;18.83;57.54
8039;BME280;4062;49.844;8.120;2023-07-31T06:55:42;99024.84;;;18.84;57.50
8039;BME280;4062;49.844;8.120;2023-07-31T06:57:43;99033.75;;;18.84;57.51
8039;BME280;4062;49.844;8.120;2023-07-31T06:59:45;99032.03;;;18.83;57.36
8039;BME280;4062;49.844;8.120;2023-07-31T07:01:46;99023.16;;;18.83;57.44
8039;BME280;4062;49.844;8.120;2023-07-31T07:03:48;99027.53;;;18.84;57.27
8039;BME280;4062;49.844;8.120;2023-07-31T07:05:52;99027.53;;;18.84;57.36
8039;BME280;4062;49.844;8.120;2023-07-31T07:07:53;99026.69;;;18.83;57.27
8039;BME280;4062;49.844;8.120;2023-07-31T07:09:55;99028.41;;;18.84;57.39
8039;BME280;4062;49.844;8.120;2023-07-31T07:11:56;99031.09;;;18.84;57.51
8039;BME280;4062;49.844;8.120;2023-07-31T07:13:57;99022.19;;;18.84;57.50
8039;BME280;4062;49.844;8.120;2023-07-31T07:15:59;99019.50;;;18.84;57.55
8039;BME280;4062;49.844;8.120;2023-07-31T07:18:00;99025.72;;;18.84;57.58
8039;BME280;4062;49.844;8.120;2023-07-31T07:20:02;99021.34;;;18.83;57.48
8039;BME280;4062;49.844;8.120;2023-07-31T07:22:04;99011.41;;;18.85;57.42
8039;BME280;4062;49.844;8.120;2023-07-31T07:24:06;99005.16;;;18.85;57.55
8039;BME280;4062;49.844;8.120;2023-07-31T07:26:07;99010.53;;;18.85;57.52
8039;BME280;4062;49.844;8.120;2023-07-31T07:28:08;99003.38;;;18.85;57.53
8039;BME280;4062;49.844;8.120;2023-07-31T07:30:10;98989.09;;;18.85;57.39
8039;BME280;4062;49.844;8.120;2023-07-31T07:32:11;98987.38;;;18.84;57.33
8039;BME280;4062;49.844;8.120;2023-07-31T07:34:13;98981.09;;;18.85;57.30
8039;BME280;4062;49.844;8.120;2023-07-31T07:36:14;98991.78;;;18.85;57.57
8039;BME280;4062;49.844;8.120;2023-07-31T07:38:15;98982.91;;;18.84;57.35
8039;BME280;4062;49.844;8.120;2023-07-31T07:40:17;98990.94;;;18.84;57.42
8039;BME280;4062;49.844;8.120;2023-07-31T07:42:19;98981.19;;;18.83;57.46
8039;BME280;4062;49.844;8.120;2023-07-31T07:44:20;98987.38;;;18.84;57.49
8039;BME280;4062;49.844;8.120;2023-07-31T07:46:21;98982.03;;;18.84;57.48
8039;BME280;4062;49.844;8.120;2023-07-31T07:48:24;98982.03;;;18.84;57.42
8039;BME280;4062;49.844;8.120;2023-07-31T07:50:26;98982.91;;;18.84;57.53
8039;BME280;4062;49.844;8.120;2023-07-31T07:52:27;98975.84;;;18.83;57.37
8039;BME280;4062;49.844;8.120;2023-07-31T07:54:29;98979.34;;;18.84;57.36
8039;BME280;4062;49.844;8.120;2023-07-31T07:56:32;98982.03;;;18.84;57.49
8039;BME280;4062;49.844;8.120;2023-07-31T07:58:34;98974.00;;;18.84;57.71
8039;BME280;4062;49.844;8.120;2023-07-31T08:00:35;98975.84;;;18.83;57.56
8039;BME280;4062;49.844;8.120;2023-07-31T08:02:36;98975.72;;;18.85;57.40
8039;BME280;4062;49.844;8.120;2023-07-31T08:04:37;98968.66;;;18.84;57.36
8039;BME280;4062;49.844;8.120;2023-07-31T08:06:39;98965.97;;;18.84;57.62
8039;BME280;4062;49.844;8.120;2023-07-31T08:08:40;98976.69;;;18.84;57.65
8039;BME280;4062;49.844;8.120;2023-07-31T08:10:42;98964.19;;;18.84;57.58
8039;BME280;4062;49.844;8.120;2023-07-31T08:12:44;98957.94;;;18.84;57.49
8039;BME280;4062;49.844;8.120;2023-07-31T08:14:45;98963.28;;;18.84;57.78
8039;BME280;4062;49.844;8.120;2023-07-31T08:16:46;98961.50;;;18.84;57.61
8039;BME280;4062;49.844;8.120;2023-07-31T08:18:47;98951.75;;;18.83;57.35
8039;BME280;4062;49.844;8.120;2023-07-31T08:20:49;98952.59;;;18.84;57.54
8039;BME280;4062;49.844;8.120;2023-07-31T08:22:51;98949.91;;;18.84;57.43
8039;BME280;4062;49.844;8.120;2023-07-31T08:24:53;98951.75;;;18.83;57.51
8039;BME280;4062;49.844;8.120;2023-07-31T08:26:54;98953.47;;;18.84;57.61
8039;BME280;4062;49.844;8.120;2023-07-31T08:28:55;98949.91;;;18.84;57.42
8039;BME280;4062;49.844;8.120;2023-07-31T08:30:57;98939.22;;;18.84;57.33
8039;BME280;4062;49.844;8.120;2023-07-31T08:32:58;98939.22;;;18.84;57.22
8039;BME280;4062;49.844;8.120;2023-07-31T08:34:59;98937.53;;;18.83;57.56
8039;BME280;4062;49.844;8.120;2023-07-31T08:37:01;98935.69;;;18.83;57.67
8039;BME280;4062;49.844;8.120;2023-07-31T08:39:02;98935.69;;;18.83;57.43
8039;BME280;4062;49.844;8.120;2023-07-31T08:41:04;98945.44;;;18.84;57.55
8039;BME280;4062;49.844;8.120;2023-07-31T08:43:06;98950.78;;;18.84;57.64
8039;BME280;4062;49.844;8.120;2023-07-31T08:45:08;98950.91;;;18.83;57.67
8039;BME280;4062;49.844;8.120;2023-07-31T08:47:10;98944.56;;;18.84;57.42
8039;BME280;4062;49.844;8.120;2023-07-31T08:49:11;98951.63;;;18.85;57.52
8039;BME280;4062;49.844;8.120;2023-07-31T08:51:14;98947.25;;;18.84;57.55
8039;BME280;4062;49.844;8.120;2023-07-31T08:53:15;98932.06;;;18.84;57.62
8039;BME280;4062;49.844;8.120;2023-07-31T08:55:19;98938.25;;;18.85;57.35
8039;BME280;4062;49.844;8.120;2023-07-31T08:57:24;98938.25;;;18.85;57.54
8039;BME280;4062;49.844;8.120;2023-07-31T08:59:28;98939.22;;;18.84;57.53
8039;BME280;4062;49.844;8.120;2023-07-31T09:01:30;98936.53;;;18.84;57.43
8039;BME280;4062;49.844;8.120;2023-07-31T09:03:37;98937.41;;;18.84;57.34
8039;BME280;4062;49.844;8.120;2023-07-31T09:05:42;98943.59;;;18.85;57.45
8039;BME280;4062;49.844;8.120;2023-07-31T09:07:45;98944.56;;;18.84;57.49
8039;BME280;4062;49.844;8.120;2023-07-31T09:09:48;98931.19;;;18.84;57.43
8039;BME280;4062;49.844;8.120;2023-07-31T09:11:50;98939.22;;;18.84;57.67
8039;BME280;4062;49.844;8.120;2023-07-31T09:13:53;98948.13;;;18.84;57.40
8039;BME280;4062;49.844;8.120;2023-07-31T09:15:56;98948.97;;;18.85;57.64
8039;BME280;4062;49.844;8.120;2023-07-31T09:18:01;98943.59;;;18.85;57.61
8039;BME280;4062;49.844;8.120;2023-07-31T09:20:17;98944.47;;;18.85;57.26
8039;BME280;4062;49.844;8.120;2023-07-31T09:22:34;98936.53;;;18.84;57.40
8039;BME280;4062;49.844;8.120;2023-07-31T09:24:36;98929.38;;;18.84;57.52
8039;BME280;4062;49.844;8.120;2023-07-31T09:26:37;98925.81;;;18.84;57.50
8039;BME280;4062;49.844;8.120;2023-07-31T09:28:38;98930.34;;;18.83;57.59
8039;BME280;4062;49.844;8.120;2023-07-31T09:32:49;98924.03;;;18.84;57.54
8039;BME280;4062;49.844;8.120;2023-07-31T09:34:50;98916.84;;;18.85;57.44
8039;BME280;4062;49.844;8.120;2023-07-31T09:36:52;98917.72;;;18.85;57.61
8039;BME280;4062;49.844;8.120;2023-07-31T09:38:54;98905.19;;;18.86;57.58
8039;BME280;4062;49.844;8.120;2023-07-31T09:40:56;98898.88;;;18.87;57.37
8039;BME280;4062;49.844;8.120;2023-07-31T09:43:08;98899.63;;;18.89;57.31
8039;BME280;4062;49.844;8.120;2023-07-31T09:45:11;98885.38;;;18.88;57.26
8039;BME280;4062;49.844;8.120;2023-07-31T09:47:23;98886.25;;;18.89;57.34
8039;BME280;4062;49.844;8.120;2023-07-31T09:49:27;98894.28;;;18.89;57.48
8039;BME280;4062;49.844;8.120;2023-07-31T09:51:29;98883.56;;;18.89;57.50
8039;BME280;4062;49.844;8.120;2023-07-31T09:53:32;98884.53;;;18.88;57.55
8039;BME280;4062;49.844;8.120;2023-07-31T09:55:34;98894.41;;;18.87;57.38
8039;BME280;4062;49.844;8.120;2023-07-31T09:57:40;98893.53;;;18.87;57.45
8039;BME280;4062;49.844;8.120;2023-07-31T09:59:46;98887.31;;;18.86;57.59
8039;BME280;4062;49.844;8.120;2023-07-31T10:01:49;98880.13;;;18.87;57.50
8039;BME280;4062;49.844;8.120;2023-07-31T10:03:51;98894.47;;;18.86;57.45
8039;BME280;4062;49.844;8.120;2023-07-31T10:05:54;98878.41;;;18.86;57.39
8039;BME280;4062;49.844;8.120;2023-07-31T10:07:57;98884.66;;;18.86;57.60
8039;BME280;4062;49.844;8.120;2023-07-31T10:10:00;98880.13;;;18.87;57.65
8039;BME280;4062;49.844;8.120;2023-07-31T10:12:02;98874.91;;;18.85;57.44
8039;BME280;4062;49.844;8.120;2023-07-31T10:14:08;98875.75;;;18.86;57.48
8039;BME280;4062;49.844;8.120;2023-07-31T10:16:11;98872.09;;;18.87;57.41
8039;BME280;4062;49.844;8.120;2023-07-31T10:18:13;98881.09;;;18.86;57.44
8039;BME280;4062;49.844;8.120;2023-07-31T10:20:15;98876.63;;;18.86;57.46
8039;BME280;4062;49.844;8.120;2023-07-31T10:22:21;98883.78;;;18.86;57.48
8039;BME280;4062;49.844;8.120;2023-07-31T10:24:22;98892.66;;;18.86;57.45
8039;BME280;4062;49.844;8.120;2023-07-31T10:26:25;98876.63;;;18.86;57.42
8039;BME280;4062;49.844;8.120;2023-07-31T10:28:27;98883.69;;;18.87;57.68
8039;BME280;4062;49.844;8.120;2023-07-31T10:30:33;98880.13;;;18.87;57.38
8039;BME280;4062;49.844;8.120;2023-07-31T10:32:36;98875.75;;;18.86;57.37
8039;BME280;4062;49.844;8.120;2023-07-31T10:34:40;98876.63;;;18.86;57.45
8039;BME280;4062;49.844;8.120;2023-07-31T10:36:41;98875.75;;;18.86;57.52
8039;BME280;4062;49.844;8.120;2023-07-31T10:38:42;98871.25;;;18.86;57.48
8039;BME280;4062;49.844;8.120;2023-07-31T10:40:44;98871.25;;;18.86;57.61
8039;BME280;4062;49.844;8.120;2023-07-31T10:44:49;98862.28;;;18.87;57.43
8039;BME280;4062;49.844;8.120;2023-07-31T10:46:55;98872.09;;;18.87;57.58
8039;BME280;4062;49.844;8.120;2023-07-31T10:49:01;98868.59;;;18.86;57.52
8039;BME280;4062;49.844;8.120;2023-07-31T10:51:08;98857.88;;;18.86;57.82
8039;BME280;4062;49.844;8.120;2023-07-31T10:53:28;98855.19;;;18.86;57.70
8039;BME280;4062;49.844;8.120;2023-07-31T10:55:35;98864.06;;;18.87;57.53
8039;BME280;4062;49.844;8.120;2023-07-31T10:57:39;98850.69;;;18.87;57.41
8039;BME280;4062;49.844;8.120;2023-07-31T10:59:45;98848.00;;;18.87;57.57
8039;BME280;4062;49.844;8.120;2023-07-31T11:01:53;98856.03;;;18.87;57.51
8039;BME280;4062;49.844;8.120;2023-07-31T11:03:57;98856.03;;;18.87;57.52
8039;BME280;4062;49.844;8.120;2023-07-31T11:06:02;98861.41;;;18.87;57.40
8039;BME280;4062;49.844;8.120;2023-07-31T11:08:23;98854.31;;;18.86;57.58
8039;BME280;4062;49.844;8.120;2023-07-31T11:10:25;98845.34;;;18.87;57.47
8039;BME280;4062;49.844;8.120;2023-07-31T11:12:27;98841.81;;;18.86;57.63